sensor_id;sensor_type;location;lat;lon;timestamp;P1;durP1;ratioP1;P2;durP2;ratioP2
11604;SDS011;5858;43.076;25.626;2023-05-16T00:00:05;4.25;;;2.92;;
11604;SDS011;5858;43.076;25.626;2023-05-16T00:02:34;4.70;;;3.67;;
11604;SDS011;5858;43.076;25.626;2023-05-16T00:05:05;4.43;;;3.22;;
11604;SDS011;5858;43.076;25.626;2023-05-16T00:07:37;5.57;;;3.13;;
11604;SDS011;5858;43.076;25.626;2023-05-16T00:10:04;6.38;;;3.03;;
11604;SDS011;5858;43.076;25.626;2023-05-16T00:12:34;7.50;;;3.30;;
11604;SDS011;5858;43.076;25.626;2023-05-16T00:15:04;5.78;;;3.00;;
11604;SDS011;5858;43.076;25.626;2023-05-16T00:17:32;4.43;;;3.08;;
11604;SDS011;5858;43.076;25.626;2023-05-16T00:20:00;9.30;;;2.72;;
11604;SDS011;5858;43.076;25.626;2023-05-16T00:22:35;5.40;;;3.22;;
11604;SDS011;5858;43.076;25.626;2023-05-16T00:25:17;5.45;;;3.30;;
11604;SDS011;5858;43.076;25.626;2023-05-16T00:27:44;6.20;;;3.42;;
11604;SDS011;5858;43.076;25.626;2023-05-16T00:30:12;5.75;;;3.33;;
11604;SDS011;5858;43.076;25.626;2023-05-16T00:32:39;5.55;;;3.20;;
11604;SDS011;5858;43.076;25.626;2023-05-16T00:35:06;8.45;;;3.95;;
11604;SDS011;5858;43.076;25.626;2023-05-16T00:40:23;4.47;;;3.05;;
11604;SDS011;5858;43.076;25.626;2023-05-16T00:42:50;5.35;;;3.42;;
11604;SDS011;5858;43.076;25.626;2023-05-16T00:45:21;4.65;;;3.15;;
11604;SDS011;5858;43.076;25.626;2023-05-16T00:47:48;4.85;;;2.95;;
11604;SDS011;5858;43.076;25.626;2023-05-16T00:50:19;7.47;;;3.20;;
11604;SDS011;5858;43.076;25.626;2023-05-16T00:52:53;5.65;;;3.10;;
11604;SDS011;5858;43.076;25.626;2023-05-16T00:55:20;5.72;;;3.30;;
11604;SDS011;5858;43.076;25.626;2023-05-16T00:57:52;6.00;;;3.33;;
11604;SDS011;5858;43.076;25.626;2023-05-16T01:00:21;5.88;;;2.92;;
11604;SDS011;5858;43.076;25.626;2023-05-16T01:02:49;5.10;;;3.20;;
11604;SDS011;5858;43.076;25.626;2023-05-16T01:05:17;5.95;;;3.00;;
11604;SDS011;5858;43.076;25.626;2023-05-16T01:07:44;9.55;;;3.55;;
11604;SDS011;5858;43.076;25.626;2023-05-16T01:10:11;6.13;;;3.30;;
11604;SDS011;5858;43.076;25.626;2023-05-16T01:12:44;8.50;;;3.80;;
11604;SDS011;5858;43.076;25.626;2023-05-16T01:15:31;7.63;;;3.08;;
11604;SDS011;5858;43.076;25.626;2023-05-16T01:18:11;6.60;;;2.92;;
11604;SDS011;5858;43.076;25.626;2023-05-16T01:20:50;5.07;;;3.35;;
11604;SDS011;5858;43.076;25.626;2023-05-16T01:23:29;5.82;;;2.78;;
11604;SDS011;5858;43.076;25.626;2023-05-16T01:26:12;5.97;;;2.90;;
11604;SDS011;5858;43.076;25.626;2023-05-16T01:28:44;5.20;;;3.40;;
11604;SDS011;5858;43.076;25.626;2023-05-16T01:31:13;5.00;;;3.35;;
11604;SDS011;5858;43.076;25.626;2023-05-16T01:33:45;4.97;;;3.10;;
11604;SDS011;5858;43.076;25.626;2023-05-16T01:36:16;5.38;;;3.30;;
11604;SDS011;5858;43.076;25.626;2023-05-16T01:38:52;3.58;;;3.20;;
11604;SDS011;5858;43.076;25.626;2023-05-16T01:41:29;5.97;;;3.50;;
11604;SDS011;5858;43.076;25.626;2023-05-16T01:44:06;6.20;;;2.97;;
11604;SDS011;5858;43.076;25.626;2023-05-16T01:46:44;3.15;;;2.83;;
11604;SDS011;5858;43.076;25.626;2023-05-16T01:49:15;9.57;;;3.80;;
11604;SDS011;5858;43.076;25.626;2023-05-16T01:51:49;4.85;;;4.25;;
11604;SDS011;5858;43.076;25.626;2023-05-16T01:54:19;4.03;;;3.47;;
11604;SDS011;5858;43.076;25.626;2023-05-16T01:56:52;4.15;;;2.97;;
11604;SDS011;5858;43.076;25.626;2023-05-16T01:59:22;7.47;;;3.13;;
11604;SDS011;5858;43.076;25.626;2023-05-16T02:01:52;4.43;;;3.10;;
11604;SDS011;5858;43.076;25.626;2023-05-16T02:04:19;3.70;;;2.95;;
11604;SDS011;5858;43.076;25.626;2023-05-16T02:06:48;7.75;;;3.30;;
11604;SDS011;5858;43.076;25.626;2023-05-16T02:09:15;4.75;;;3.00;;
11604;SDS011;5858;43.076;25.626;2023-05-16T02:11:43;7.20;;;3.30;;
11604;SDS011;5858;43.076;25.626;2023-05-16T02:14:14;5.60;;;3.10;;
11604;SDS011;5858;43.076;25.626;2023-05-16T02:16:41;4.25;;;2.90;;
11604;SDS011;5858;43.076;25.626;2023-05-16T02:19:14;4.10;;;3.30;;
11604;SDS011;5858;43.076;25.626;2023-05-16T02:21:47;9.05;;;3.35;;
11604;SDS011;5858;43.076;25.626;2023-05-16T02:24:15;7.45;;;3.67;;
11604;SDS011;5858;43.076;25.626;2023-05-16T02:26:42;8.50;;;3.42;;
11604;SDS011;5858;43.076;25.626;2023-05-16T02:29:09;6.63;;;3.50;;
11604;SDS011;5858;43.076;25.626;2023-05-16T02:31:41;8.57;;;3.72;;
11604;SDS011;5858;43.076;25.626;2023-05-16T02:34:08;5.00;;;3.20;;
11604;SDS011;5858;43.076;25.626;2023-05-16T02:36:35;7.55;;;3.20;;
11604;SDS011;5858;43.076;25.626;2023-05-16T02:39:02;6.30;;;3.08;;
11604;SDS011;5858;43.076;25.626;2023-05-16T02:41:30;4.53;;;3.13;;
11604;SDS011;5858;43.076;25.626;2023-05-16T02:43:57;6.30;;;3.42;;
11604;SDS011;5858;43.076;25.626;2023-05-16T02:46:26;6.18;;;3.58;;
11604;SDS011;5858;43.076;25.626;2023-05-16T02:48:54;9.57;;;3.80;;
11604;SDS011;5858;43.076;25.626;2023-05-16T02:51:22;8.00;;;4.30;;
11604;SDS011;5858;43.076;25.626;2023-05-16T02:53:51;6.85;;;4.35;;
11604;SDS011;5858;43.076;25.626;2023-05-16T02:56:20;7.95;;;4.28;;
11604;SDS011;5858;43.076;25.626;2023-05-16T02:58:50;6.63;;;4.55;;
11604;SDS011;5858;43.076;25.626;2023-05-16T03:01:19;5.10;;;4.60;;
11604;SDS011;5858;43.076;25.626;2023-05-16T03:03:50;8.10;;;4.60;;
11604;SDS011;5858;43.076;25.626;2023-05-16T03:06:19;6.65;;;4.22;;
11604;SDS011;5858;43.076;25.626;2023-05-16T03:08:46;7.75;;;4.60;;
11604;SDS011;5858;43.076;25.626;2023-05-16T03:11:13;6.47;;;4.38;;
11604;SDS011;5858;43.076;25.626;2023-05-16T03:13:44;8.18;;;3.85;;
11604;SDS011;5858;43.076;25.626;2023-05-16T03:16:11;7.18;;;3.83;;
11604;SDS011;5858;43.076;25.626;2023-05-16T03:18:39;7.07;;;4.25;;
11604;SDS011;5858;43.076;25.626;2023-05-16T03:21:08;9.00;;;3.92;;
11604;SDS011;5858;43.076;25.626;2023-05-16T03:23:35;4.82;;;3.53;;
11604;SDS011;5858;43.076;25.626;2023-05-16T03:26:06;6.15;;;3.60;;
11604;SDS011;5858;43.076;25.626;2023-05-16T03:28:36;6.43;;;4.07;;
11604;SDS011;5858;43.076;25.626;2023-05-16T03:31:05;5.15;;;3.80;;
11604;SDS011;5858;43.076;25.626;2023-05-16T03:33:33;5.45;;;3.40;;
11604;SDS011;5858;43.076;25.626;2023-05-16T03:36:01;6.13;;;3.63;;
11604;SDS011;5858;43.076;25.626;2023-05-16T03:38:38;5.22;;;3.50;;
11604;SDS011;5858;43.076;25.626;2023-05-16T03:41:13;7.63;;;3.72;;
11604;SDS011;5858;43.076;25.626;2023-05-16T03:51:04;7.78;;;3.60;;
11604;SDS011;5858;43.076;25.626;2023-05-16T03:57:03;5.20;;;3.13;;
11604;SDS011;5858;43.076;25.626;2023-05-16T03:59:54;7.60;;;3.38;;
11604;SDS011;5858;43.076;25.626;2023-05-16T04:03:00;11.07;;;3.30;;
11604;SDS011;5858;43.076;25.626;2023-05-16T04:05:41;4.30;;;3.15;;
11604;SDS011;5858;43.076;25.626;2023-05-16T04:08:33;6.07;;;3.00;;
11604;SDS011;5858;43.076;25.626;2023-05-16T04:14:36;6.03;;;3.42;;
11604;SDS011;5858;43.076;25.626;2023-05-16T04:17:36;8.63;;;3.17;;
11604;SDS011;5858;43.076;25.626;2023-05-16T04:20:33;7.70;;;3.30;;
11604;SDS011;5858;43.076;25.626;2023-05-16T04:23:40;7.25;;;3.13;;
11604;SDS011;5858;43.076;25.626;2023-05-16T04:26:37;8.10;;;3.03;;
11604;SDS011;5858;43.076;25.626;2023-05-16T04:29:40;6.22;;;2.78;;
11604;SDS011;5858;43.076;25.626;2023-05-16T04:36:16;8.23;;;3.10;;
11604;SDS011;5858;43.076;25.626;2023-05-16T04:38:50;7.05;;;3.13;;
11604;SDS011;5858;43.076;25.626;2023-05-16T04:41:51;9.05;;;4.32;;
11604;SDS011;5858;43.076;25.626;2023-05-16T04:44:23;6.47;;;3.15;;
11604;SDS011;5858;43.076;25.626;2023-05-16T04:49:46;9.07;;;2.80;;
11604;SDS011;5858;43.076;25.626;2023-05-16T06:57:23;8.23;;;3.92;;
11604;SDS011;5858;43.076;25.626;2023-05-16T06:59:53;12.57;;;6.93;;
11604;SDS011;5858;43.076;25.626;2023-05-16T07:40:12;6.28;;;3.50;;
11604;SDS011;5858;43.076;25.626;2023-05-16T07:42:56;8.73;;;3.83;;
11604;SDS011;5858;43.076;25.626;2023-05-16T07:45:28;7.93;;;3.47;;
11604;SDS011;5858;43.076;25.626;2023-05-16T08:08:20;7.35;;;3.35;;
11604;SDS011;5858;43.076;25.626;2023-05-16T08:13:42;10.02;;;3.55;;
11604;SDS011;5858;43.076;25.626;2023-05-16T08:18:12;6.15;;;3.45;;
11604;SDS011;5858;43.076;25.626;2023-05-16T08:32:56;8.75;;;4.80;;
11604;SDS011;5858;43.076;25.626;2023-05-16T08:38:56;10.32;;;4.13;;
11604;SDS011;5858;43.076;25.626;2023-05-16T08:41:47;7.78;;;3.38;;
11604;SDS011;5858;43.076;25.626;2023-05-16T08:44:43;16.02;;;7.78;;
11604;SDS011;5858;43.076;25.626;2023-05-16T08:47:53;57.70;;;26.13;;
11604;SDS011;5858;43.076;25.626;2023-05-16T08:51:11;27.90;;;11.30;;
11604;SDS011;5858;43.076;25.626;2023-05-16T08:54:04;23.88;;;10.68;;
11604;SDS011;5858;43.076;25.626;2023-05-16T08:56:52;7.68;;;4.30;;
11604;SDS011;5858;43.076;25.626;2023-05-16T08:59:37;10.32;;;4.78;;
11604;SDS011;5858;43.076;25.626;2023-05-16T09:02:13;8.90;;;4.20;;
11604;SDS011;5858;43.076;25.626;2023-05-16T09:04:54;12.77;;;5.93;;
11604;SDS011;5858;43.076;25.626;2023-05-16T09:08:02;7.03;;;4.60;;
11604;SDS011;5858;43.076;25.626;2023-05-16T09:10:39;13.70;;;5.07;;
11604;SDS011;5858;43.076;25.626;2023-05-16T09:13:08;17.30;;;5.60;;
11604;SDS011;5858;43.076;25.626;2023-05-16T09:16:11;12.18;;;5.32;;
11604;SDS011;5858;43.076;25.626;2023-05-16T10:46:15;8.68;;;5.00;;
11604;SDS011;5858;43.076;25.626;2023-05-16T10:48:49;39.67;;;22.25;;
11604;SDS011;5858;43.076;25.626;2023-05-16T10:51:34;15.43;;;5.40;;
11604;SDS011;5858;43.076;25.626;2023-05-16T10:54:50;14.05;;;4.60;;
11604;SDS011;5858;43.076;25.626;2023-05-16T10:57:27;11.80;;;4.38;;
11604;SDS011;5858;43.076;25.626;2023-05-16T11:07:36;8.95;;;5.22;;
11604;SDS011;5858;43.076;25.626;2023-05-16T11:10:07;8.00;;;4.50;;
11604;SDS011;5858;43.076;25.626;2023-05-16T11:12:57;7.00;;;4.35;;
11604;SDS011;5858;43.076;25.626;2023-05-16T11:24:57;11.80;;;4.50;;
11604;SDS011;5858;43.076;25.626;2023-05-16T12:10:14;6.28;;;3.10;;
11604;SDS011;5858;43.076;25.626;2023-05-16T12:13:22;8.98;;;3.45;;
11604;SDS011;5858;43.076;25.626;2023-05-16T12:15:59;5.72;;;3.03;;
11604;SDS011;5858;43.076;25.626;2023-05-16T12:18:29;6.13;;;3.65;;
11604;SDS011;5858;43.076;25.626;2023-05-16T12:42:22;11.38;;;3.95;;
11604;SDS011;5858;43.076;25.626;2023-05-16T12:45:20;6.75;;;3.00;;
11604;SDS011;5858;43.076;25.626;2023-05-16T12:51:20;9.25;;;3.28;;
11604;SDS011;5858;43.076;25.626;2023-05-16T12:53:53;11.35;;;3.10;;
11604;SDS011;5858;43.076;25.626;2023-05-16T12:56:24;12.57;;;3.00;;
11604;SDS011;5858;43.076;25.626;2023-05-16T12:58:52;8.52;;;3.70;;
11604;SDS011;5858;43.076;25.626;2023-05-16T13:01:20;8.52;;;3.15;;
11604;SDS011;5858;43.076;25.626;2023-05-16T13:03:56;10.23;;;3.53;;
11604;SDS011;5858;43.076;25.626;2023-05-16T13:06:29;7.88;;;3.47;;
11604;SDS011;5858;43.076;25.626;2023-05-16T13:08:59;14.93;;;5.18;;
11604;SDS011;5858;43.076;25.626;2023-05-16T13:11:29;11.27;;;4.10;;
11604;SDS011;5858;43.076;25.626;2023-05-16T13:14:00;15.60;;;4.25;;
11604;SDS011;5858;43.076;25.626;2023-05-16T13:16:27;8.15;;;4.00;;
11604;SDS011;5858;43.076;25.626;2023-05-16T13:18:57;16.10;;;3.58;;
11604;SDS011;5858;43.076;25.626;2023-05-16T13:21:26;13.43;;;4.68;;
11604;SDS011;5858;43.076;25.626;2023-05-16T13:23:55;17.00;;;3.88;;
11604;SDS011;5858;43.076;25.626;2023-05-16T13:26:24;10.57;;;3.63;;
11604;SDS011;5858;43.076;25.626;2023-05-16T13:28:59;12.15;;;3.55;;
11604;SDS011;5858;43.076;25.626;2023-05-16T13:31:29;11.88;;;3.50;;
11604;SDS011;5858;43.076;25.626;2023-05-16T13:34:02;15.27;;;4.10;;
11604;SDS011;5858;43.076;25.626;2023-05-16T13:36:32;13.90;;;3.15;;
11604;SDS011;5858;43.076;25.626;2023-05-16T13:38:59;8.95;;;3.70;;
11604;SDS011;5858;43.076;25.626;2023-05-16T13:41:27;9.35;;;3.75;;
11604;SDS011;5858;43.076;25.626;2023-05-16T13:44:03;7.72;;;3.13;;
11604;SDS011;5858;43.076;25.626;2023-05-16T13:46:34;11.63;;;3.42;;
11604;SDS011;5858;43.076;25.626;2023-05-16T13:49:12;9.32;;;3.65;;
11604;SDS011;5858;43.076;25.626;2023-05-16T13:51:40;10.77;;;3.67;;
11604;SDS011;5858;43.076;25.626;2023-05-16T13:57:25;10.07;;;3.25;;
11604;SDS011;5858;43.076;25.626;2023-05-16T14:13:10;9.50;;;3.78;;
11604;SDS011;5858;43.076;25.626;2023-05-16T14:15:52;8.02;;;3.33;;
11604;SDS011;5858;43.076;25.626;2023-05-16T14:18:19;12.02;;;3.83;;
11604;SDS011;5858;43.076;25.626;2023-05-16T14:22:05;8.18;;;3.67;;
11604;SDS011;5858;43.076;25.626;2023-05-16T14:23:55;7.35;;;4.03;;
11604;SDS011;5858;43.076;25.626;2023-05-16T14:26:24;7.18;;;3.75;;
11604;SDS011;5858;43.076;25.626;2023-05-16T14:28:53;8.68;;;3.53;;
11604;SDS011;5858;43.076;25.626;2023-05-16T14:31:21;10.55;;;3.45;;
11604;SDS011;5858;43.076;25.626;2023-05-16T14:33:48;14.93;;;4.30;;
11604;SDS011;5858;43.076;25.626;2023-05-16T14:36:15;11.48;;;4.05;;
11604;SDS011;5858;43.076;25.626;2023-05-16T14:38:42;13.00;;;3.47;;
11604;SDS011;5858;43.076;25.626;2023-05-16T14:41:09;5.93;;;3.65;;
11604;SDS011;5858;43.076;25.626;2023-05-16T14:43:36;12.32;;;4.57;;
11604;SDS011;5858;43.076;25.626;2023-05-16T14:46:25;9.93;;;3.35;;
11604;SDS011;5858;43.076;25.626;2023-05-16T14:48:52;8.63;;;4.03;;
11604;SDS011;5858;43.076;25.626;2023-05-16T14:51:22;10.75;;;4.07;;
11604;SDS011;5858;43.076;25.626;2023-05-16T14:53:49;7.93;;;3.35;;
11604;SDS011;5858;43.076;25.626;2023-05-16T14:56:16;9.20;;;3.95;;
11604;SDS011;5858;43.076;25.626;2023-05-16T14:58:44;10.27;;;3.03;;
11604;SDS011;5858;43.076;25.626;2023-05-16T15:01:11;10.52;;;3.30;;
11604;SDS011;5858;43.076;25.626;2023-05-16T15:03:40;10.10;;;3.10;;
11604;SDS011;5858;43.076;25.626;2023-05-16T15:06:12;8.40;;;3.38;;
11604;SDS011;5858;43.076;25.626;2023-05-16T15:08:40;11.43;;;3.30;;
11604;SDS011;5858;43.076;25.626;2023-05-16T15:21:50;11.15;;;3.30;;
11604;SDS011;5858;43.076;25.626;2023-05-16T15:27:08;6.65;;;2.67;;
11604;SDS011;5858;43.076;25.626;2023-05-16T15:29:40;5.05;;;2.72;;
11604;SDS011;5858;43.076;25.626;2023-05-16T15:32:10;9.90;;;3.58;;
11604;SDS011;5858;43.076;25.626;2023-05-16T15:34:38;9.82;;;3.70;;
11604;SDS011;5858;43.076;25.626;2023-05-16T15:37:07;9.07;;;3.72;;
11604;SDS011;5858;43.076;25.626;2023-05-16T15:39:34;8.75;;;2.95;;
11604;SDS011;5858;43.076;25.626;2023-05-16T15:42:05;8.25;;;3.60;;
11604;SDS011;5858;43.076;25.626;2023-05-16T15:44:47;19.45;;;4.47;;
11604;SDS011;5858;43.076;25.626;2023-05-16T15:47:20;20.77;;;3.97;;
11604;SDS011;5858;43.076;25.626;2023-05-16T15:55:46;14.45;;;3.58;;
11604;SDS011;5858;43.076;25.626;2023-05-16T15:58:23;15.77;;;3.50;;
11604;SDS011;5858;43.076;25.626;2023-05-16T16:01:27;14.05;;;4.28;;
11604;SDS011;5858;43.076;25.626;2023-05-16T16:04:00;12.10;;;3.70;;
11604;SDS011;5858;43.076;25.626;2023-05-16T16:06:36;13.13;;;3.63;;
11604;SDS011;5858;43.076;25.626;2023-05-16T16:09:12;11.30;;;3.72;;
11604;SDS011;5858;43.076;25.626;2023-05-16T16:11:53;13.65;;;3.97;;
11604;SDS011;5858;43.076;25.626;2023-05-16T16:14:25;8.57;;;2.90;;
11604;SDS011;5858;43.076;25.626;2023-05-16T16:17:35;8.82;;;3.05;;
11604;SDS011;5858;43.076;25.626;2023-05-16T16:20:22;9.60;;;3.35;;
11604;SDS011;5858;43.076;25.626;2023-05-16T16:23:51;10.48;;;3.30;;
11604;SDS011;5858;43.076;25.626;2023-05-16T16:34:42;10.05;;;3.75;;
11604;SDS011;5858;43.076;25.626;2023-05-16T16:37:32;10.93;;;3.70;;
11604;SDS011;5858;43.076;25.626;2023-05-16T16:40:13;9.43;;;3.28;;
11604;SDS011;5858;43.076;25.626;2023-05-16T16:42:41;11.18;;;3.97;;
11604;SDS011;5858;43.076;25.626;2023-05-16T16:45:09;14.40;;;3.50;;
11604;SDS011;5858;43.076;25.626;2023-05-16T16:47:37;12.63;;;3.38;;
11604;SDS011;5858;43.076;25.626;2023-05-16T16:50:08;13.23;;;3.25;;
11604;SDS011;5858;43.076;25.626;2023-05-16T16:58:49;17.65;;;5.13;;
11604;SDS011;5858;43.076;25.626;2023-05-16T17:21:31;18.35;;;4.65;;
11604;SDS011;5858;43.076;25.626;2023-05-16T17:24:29;17.83;;;4.38;;
11604;SDS011;5858;43.076;25.626;2023-05-16T17:27:00;21.52;;;4.82;;
11604;SDS011;5858;43.076;25.626;2023-05-16T17:29:44;16.13;;;5.05;;
11604;SDS011;5858;43.076;25.626;2023-05-16T17:32:16;21.10;;;5.32;;
11604;SDS011;5858;43.076;25.626;2023-05-16T17:34:55;17.23;;;4.95;;
11604;SDS011;5858;43.076;25.626;2023-05-16T17:37:27;14.32;;;5.38;;
11604;SDS011;5858;43.076;25.626;2023-05-16T17:39:55;15.68;;;5.22;;
11604;SDS011;5858;43.076;25.626;2023-05-16T17:42:45;14.05;;;5.43;;
11604;SDS011;5858;43.076;25.626;2023-05-16T17:45:13;19.98;;;6.78;;
11604;SDS011;5858;43.076;25.626;2023-05-16T17:47:51;16.08;;;6.65;;
11604;SDS011;5858;43.076;25.626;2023-05-16T17:50:33;15.73;;;5.00;;
11604;SDS011;5858;43.076;25.626;2023-05-16T17:56:37;15.07;;;6.20;;
11604;SDS011;5858;43.076;25.626;2023-05-16T18:06:02;15.18;;;5.22;;
11604;SDS011;5858;43.076;25.626;2023-05-16T18:09:13;20.48;;;4.90;;
11604;SDS011;5858;43.076;25.626;2023-05-16T18:11:50;14.57;;;4.95;;
11604;SDS011;5858;43.076;25.626;2023-05-16T18:14:51;17.88;;;5.38;;
11604;SDS011;5858;43.076;25.626;2023-05-16T18:17:30;22.52;;;5.28;;
11604;SDS011;5858;43.076;25.626;2023-05-16T18:20:00;16.15;;;5.10;;
11604;SDS011;5858;43.076;25.626;2023-05-16T18:22:35;20.95;;;5.43;;
11604;SDS011;5858;43.076;25.626;2023-05-16T18:25:23;27.92;;;5.47;;
11604;SDS011;5858;43.076;25.626;2023-05-16T18:27:51;22.60;;;5.05;;
11604;SDS011;5858;43.076;25.626;2023-05-16T18:30:26;21.20;;;5.25;;
11604;SDS011;5858;43.076;25.626;2023-05-16T18:33:08;16.45;;;5.28;;
11604;SDS011;5858;43.076;25.626;2023-05-16T18:35:41;10.93;;;5.45;;
11604;SDS011;5858;43.076;25.626;2023-05-16T18:38:13;17.00;;;5.53;;
11604;SDS011;5858;43.076;25.626;2023-05-16T18:40:55;26.17;;;6.15;;
11604;SDS011;5858;43.076;25.626;2023-05-16T18:43:33;16.27;;;5.43;;
11604;SDS011;5858;43.076;25.626;2023-05-16T18:46:04;9.70;;;4.55;;
11604;SDS011;5858;43.076;25.626;2023-05-16T18:48:34;13.15;;;4.90;;
11604;SDS011;5858;43.076;25.626;2023-05-16T18:51:11;19.35;;;6.22;;
11604;SDS011;5858;43.076;25.626;2023-05-16T18:53:42;14.70;;;5.25;;
11604;SDS011;5858;43.076;25.626;2023-05-16T18:56:12;18.23;;;8.07;;
11604;SDS011;5858;43.076;25.626;2023-05-16T18:58:51;15.05;;;6.00;;
11604;SDS011;5858;43.076;25.626;2023-05-16T19:01:21;19.92;;;6.65;;
11604;SDS011;5858;43.076;25.626;2023-05-16T19:03:52;12.20;;;4.78;;
11604;SDS011;5858;43.076;25.626;2023-05-16T19:06:19;21.48;;;6.32;;
11604;SDS011;5858;43.076;25.626;2023-05-16T19:08:47;18.15;;;6.10;;
11604;SDS011;5858;43.076;25.626;2023-05-16T19:11:15;24.77;;;6.60;;
11604;SDS011;5858;43.076;25.626;2023-05-16T19:13:43;16.42;;;6.00;;
11604;SDS011;5858;43.076;25.626;2023-05-16T19:16:11;17.20;;;5.38;;
11604;SDS011;5858;43.076;25.626;2023-05-16T19:18:38;23.35;;;6.78;;
11604;SDS011;5858;43.076;25.626;2023-05-16T19:21:13;13.93;;;6.53;;
11604;SDS011;5858;43.076;25.626;2023-05-16T19:23:40;18.50;;;6.05;;
11604;SDS011;5858;43.076;25.626;2023-05-16T19:26:10;17.45;;;5.30;;
11604;SDS011;5858;43.076;25.626;2023-05-16T19:28:40;22.13;;;6.72;;
11604;SDS011;5858;43.076;25.626;2023-05-16T19:31:12;20.17;;;5.68;;
11604;SDS011;5858;43.076;25.626;2023-05-16T19:33:44;23.08;;;6.20;;
11604;SDS011;5858;43.076;25.626;2023-05-16T19:36:16;18.52;;;4.45;;
11604;SDS011;5858;43.076;25.626;2023-05-16T19:38:53;12.20;;;5.57;;
11604;SDS011;5858;43.076;25.626;2023-05-16T19:41:31;11.05;;;4.75;;
11604;SDS011;5858;43.076;25.626;2023-05-16T19:43:59;12.57;;;5.60;;
11604;SDS011;5858;43.076;25.626;2023-05-16T19:46:32;19.17;;;5.18;;
11604;SDS011;5858;43.076;25.626;2023-05-16T19:49:02;12.65;;;4.97;;
11604;SDS011;5858;43.076;25.626;2023-05-16T19:51:29;8.10;;;4.40;;
11604;SDS011;5858;43.076;25.626;2023-05-16T19:54:01;14.48;;;4.55;;
11604;SDS011;5858;43.076;25.626;2023-05-16T19:56:28;9.75;;;4.53;;
11604;SDS011;5858;43.076;25.626;2023-05-16T19:58:57;13.80;;;5.38;;
11604;SDS011;5858;43.076;25.626;2023-05-16T20:01:33;13.35;;;4.63;;
11604;SDS011;5858;43.076;25.626;2023-05-16T20:04:10;12.18;;;4.50;;
11604;SDS011;5858;43.076;25.626;2023-05-16T20:06:49;12.55;;;4.45;;
11604;SDS011;5858;43.076;25.626;2023-05-16T20:09:17;12.60;;;4.63;;
11604;SDS011;5858;43.076;25.626;2023-05-16T20:11:47;12.70;;;5.13;;
11604;SDS011;5858;43.076;25.626;2023-05-16T20:14:15;12.27;;;4.45;;
11604;SDS011;5858;43.076;25.626;2023-05-16T20:16:46;12.57;;;4.90;;
11604;SDS011;5858;43.076;25.626;2023-05-16T20:19:18;12.18;;;4.32;;
11604;SDS011;5858;43.076;25.626;2023-05-16T20:21:51;11.25;;;5.07;;
11604;SDS011;5858;43.076;25.626;2023-05-16T20:24:26;13.35;;;4.18;;
11604;SDS011;5858;43.076;25.626;2023-05-16T20:26:56;12.82;;;5.15;;
11604;SDS011;5858;43.076;25.626;2023-05-16T20:29:28;12.95;;;4.40;;
11604;SDS011;5858;43.076;25.626;2023-05-16T20:31:57;10.38;;;4.07;;
11604;SDS011;5858;43.076;25.626;2023-05-16T20:34:25;11.43;;;4.97;;
11604;SDS011;5858;43.076;25.626;2023-05-16T20:39:54;14.32;;;4.57;;
11604;SDS011;5858;43.076;25.626;2023-05-16T20:42:23;10.50;;;4.65;;
11604;SDS011;5858;43.076;25.626;2023-05-16T20:44:56;18.55;;;5.15;;
11604;SDS011;5858;43.076;25.626;2023-05-16T20:47:26;14.23;;;4.68;;
11604;SDS011;5858;43.076;25.626;2023-05-16T20:49:54;11.50;;;4.75;;
11604;SDS011;5858;43.076;25.626;2023-05-16T20:52:24;9.18;;;4.78;;
11604;SDS011;5858;43.076;25.626;2023-05-16T20:55:03;9.70;;;3.88;;
11604;SDS011;5858;43.076;25.626;2023-05-16T20:57:37;12.75;;;4.05;;
11604;SDS011;5858;43.076;25.626;2023-05-16T21:00:18;7.22;;;3.60;;
11604;SDS011;5858;43.076;25.626;2023-05-16T21:03:10;8.45;;;4.93;;
11604;SDS011;5858;43.076;25.626;2023-05-16T21:06:02;9.27;;;3.72;;
11604;SDS011;5858;43.076;25.626;2023-05-16T21:09:15;11.15;;;3.92;;
11604;SDS011;5858;43.076;25.626;2023-05-16T21:12:19;12.07;;;4.47;;
11604;SDS011;5858;43.076;25.626;2023-05-16T21:18:30;9.00;;;3.70;;
11604;SDS011;5858;43.076;25.626;2023-05-16T21:21:01;8.80;;;3.40;;
11604;SDS011;5858;43.076;25.626;2023-05-16T21:23:39;9.27;;;3.90;;
11604;SDS011;5858;43.076;25.626;2023-05-16T21:26:24;13.55;;;3.90;;
11604;SDS011;5858;43.076;25.626;2023-05-16T21:29:12;10.13;;;5.07;;
11604;SDS011;5858;43.076;25.626;2023-05-16T21:35:18;12.98;;;4.53;;
11604;SDS011;5858;43.076;25.626;2023-05-16T21:38:04;12.65;;;4.97;;
11604;SDS011;5858;43.076;25.626;2023-05-16T21:40:41;13.60;;;4.30;;
11604;SDS011;5858;43.076;25.626;2023-05-16T21:43:20;12.23;;;4.00;;
11604;SDS011;5858;43.076;25.626;2023-05-16T21:46:05;13.07;;;5.18;;
11604;SDS011;5858;43.076;25.626;2023-05-16T21:52:26;13.75;;;4.53;;
11604;SDS011;5858;43.076;25.626;2023-05-16T21:55:08;10.35;;;4.53;;
11604;SDS011;5858;43.076;25.626;2023-05-16T21:57:46;12.15;;;5.88;;
11604;SDS011;5858;43.076;25.626;2023-05-16T22:00:31;12.90;;;4.90;;
11604;SDS011;5858;43.076;25.626;2023-05-16T22:03:11;10.55;;;4.88;;
11604;SDS011;5858;43.076;25.626;2023-05-16T22:11:42;13.90;;;5.10;;
11604;SDS011;5858;43.076;25.626;2023-05-16T22:14:18;11.02;;;4.68;;
11604;SDS011;5858;43.076;25.626;2023-05-16T22:22:54;9.30;;;4.28;;
11604;SDS011;5858;43.076;25.626;2023-05-16T22:25:33;10.27;;;4.15;;
11604;SDS011;5858;43.076;25.626;2023-05-16T22:28:14;6.78;;;3.28;;
11604;SDS011;5858;43.076;25.626;2023-05-16T22:30:53;8.57;;;3.65;;
11604;SDS011;5858;43.076;25.626;2023-05-16T22:33:26;6.10;;;3.22;;
11604;SDS011;5858;43.076;25.626;2023-05-16T22:35:58;7.38;;;3.47;;
11604;SDS011;5858;43.076;25.626;2023-05-16T22:38:29;6.50;;;2.83;;
11604;SDS011;5858;43.076;25.626;2023-05-16T22:41:13;4.55;;;2.22;;
11604;SDS011;5858;43.076;25.626;2023-05-16T22:43:42;3.90;;;2.17;;
11604;SDS011;5858;43.076;25.626;2023-05-16T22:46:10;6.93;;;2.72;;
11604;SDS011;5858;43.076;25.626;2023-05-16T22:48:37;10.25;;;2.20;;
11604;SDS011;5858;43.076;25.626;2023-05-16T22:51:04;6.47;;;2.72;;
11604;SDS011;5858;43.076;25.626;2023-05-16T22:53:34;8.55;;;2.78;;
11604;SDS011;5858;43.076;25.626;2023-05-16T22:56:05;8.10;;;2.33;;
11604;SDS011;5858;43.076;25.626;2023-05-16T22:58:36;17.80;;;8.85;;
11604;SDS011;5858;43.076;25.626;2023-05-16T23:01:16;13.65;;;6.75;;
11604;SDS011;5858;43.076;25.626;2023-05-16T23:04:17;13.73;;;5.57;;
11604;SDS011;5858;43.076;25.626;2023-05-16T23:07:30;10.50;;;3.65;;
11604;SDS011;5858;43.076;25.626;2023-05-16T23:10:55;8.27;;;4.45;;
11604;SDS011;5858;43.076;25.626;2023-05-16T23:20:18;6.25;;;4.80;;
11604;SDS011;5858;43.076;25.626;2023-05-16T23:23:12;11.07;;;3.67;;
11604;SDS011;5858;43.076;25.626;2023-05-16T23:25:58;9.15;;;4.25;;
11604;SDS011;5858;43.076;25.626;2023-05-16T23:28:37;10.43;;;3.55;;
11604;SDS011;5858;43.076;25.626;2023-05-16T23:44:23;5.45;;;3.13;;
11604;SDS011;5858;43.076;25.626;2023-05-16T23:52:46;4.72;;;3.22;;
11604;SDS011;5858;43.076;25.626;2023-05-16T23:53:54;6.10;;;3.63;;
